sensor_id;sensor_type;location;lat;lon;timestamp;P1;durP1;ratioP1;P2;durP2;ratioP2
35290;SDS011;21411;50.024;19.220;2023-03-31T00:01:35;18.70;;;15.60;;
35290;SDS011;21411;50.024;19.220;2023-03-31T00:04:07;15.50;;;13.80;;
35290;SDS011;21411;50.024;19.220;2023-03-31T00:17:04;16.40;;;13.50;;
35290;SDS011;21411;50.024;19.220;2023-03-31T00:19:30;18.10;;;14.60;;
35290;SDS011;21411;50.024;19.220;2023-03-31T00:21:58;18.50;;;15.10;;
35290;SDS011;21411;50.024;19.220;2023-03-31T00:24:28;16.90;;;14.80;;
35290;SDS011;21411;50.024;19.220;2023-03-31T00:26:58;19.80;;;15.10;;
35290;SDS011;21411;50.024;19.220;2023-03-31T00:29:25;18.10;;;15.40;;
35290;SDS011;21411;50.024;19.220;2023-03-31T00:31:52;16.00;;;14.30;;
35290;SDS011;21411;50.024;19.220;2023-03-31T00:34:19;18.50;;;15.50;;
35290;SDS011;21411;50.024;19.220;2023-03-31T00:36:45;19.60;;;14.60;;
35290;SDS011;21411;50.024;19.220;2023-03-31T00:39:15;17.10;;;15.30;;
35290;SDS011;21411;50.024;19.220;2023-03-31T00:41:43;17.80;;;15.30;;
35290;SDS011;21411;50.024;19.220;2023-03-31T00:44:12;16.90;;;15.20;;
35290;SDS011;21411;50.024;19.220;2023-03-31T00:46:56;17.90;;;14.60;;
35290;SDS011;21411;50.024;19.220;2023-03-31T00:49:28;14.70;;;13.20;;
35290;SDS011;21411;50.024;19.220;2023-03-31T00:52:01;18.10;;;14.60;;
35290;SDS011;21411;50.024;19.220;2023-03-31T00:54:32;16.70;;;14.40;;
35290;SDS011;21411;50.024;19.220;2023-03-31T00:57:01;15.90;;;14.30;;
35290;SDS011;21411;50.024;19.220;2023-03-31T01:02:01;16.90;;;13.20;;
35290;SDS011;21411;50.024;19.220;2023-03-31T01:04:31;15.70;;;13.20;;
35290;SDS011;21411;50.024;19.220;2023-03-31T01:07:03;15.20;;;13.70;;
35290;SDS011;21411;50.024;19.220;2023-03-31T01:09:37;17.30;;;13.10;;
35290;SDS011;21411;50.024;19.220;2023-03-31T01:12:07;17.70;;;14.80;;
35290;SDS011;21411;50.024;19.220;2023-03-31T01:14:35;18.70;;;15.50;;
35290;SDS011;21411;50.024;19.220;2023-03-31T01:17:02;18.40;;;14.80;;
35290;SDS011;21411;50.024;19.220;2023-03-31T01:27:58;14.30;;;12.80;;
35290;SDS011;21411;50.024;19.220;2023-03-31T01:30:42;14.10;;;12.30;;
35290;SDS011;21411;50.024;19.220;2023-03-31T01:35:57;15.00;;;12.20;;
35290;SDS011;21411;50.024;19.220;2023-03-31T01:38:38;12.50;;;11.20;;
35290;SDS011;21411;50.024;19.220;2023-03-31T01:41:26;13.00;;;11.40;;
35290;SDS011;21411;50.024;19.220;2023-03-31T01:46:56;11.90;;;10.30;;
35290;SDS011;21411;50.024;19.220;2023-03-31T01:49:33;11.90;;;10.80;;
35290;SDS011;21411;50.024;19.220;2023-03-31T01:52:28;12.10;;;10.80;;
35290;SDS011;21411;50.024;19.220;2023-03-31T01:55:05;11.70;;;10.40;;
35290;SDS011;21411;50.024;19.220;2023-03-31T01:57:38;10.90;;;9.80;;
35290;SDS011;21411;50.024;19.220;2023-03-31T02:03:23;10.80;;;8.90;;
35290;SDS011;21411;50.024;19.220;2023-03-31T02:05:55;9.50;;;8.60;;
35290;SDS011;21411;50.024;19.220;2023-03-31T02:08:30;11.70;;;9.00;;
35290;SDS011;21411;50.024;19.220;2023-03-31T02:10:59;9.20;;;8.30;;
35290;SDS011;21411;50.024;19.220;2023-03-31T02:13:27;8.80;;;7.90;;
35290;SDS011;21411;50.024;19.220;2023-03-31T02:15:56;9.40;;;8.20;;
35290;SDS011;21411;50.024;19.220;2023-03-31T02:18:28;8.10;;;7.40;;
35290;SDS011;21411;50.024;19.220;2023-03-31T02:20:58;8.70;;;7.50;;
35290;SDS011;21411;50.024;19.220;2023-03-31T02:23:27;8.10;;;7.10;;
35290;SDS011;21411;50.024;19.220;2023-03-31T02:26:01;8.30;;;7.40;;
35290;SDS011;21411;50.024;19.220;2023-03-31T02:28:33;8.40;;;7.60;;
35290;SDS011;21411;50.024;19.220;2023-03-31T02:33:47;8.90;;;7.20;;
35290;SDS011;21411;50.024;19.220;2023-03-31T02:36:15;10.00;;;7.90;;
35290;SDS011;21411;50.024;19.220;2023-03-31T02:38:42;10.70;;;7.60;;
35290;SDS011;21411;50.024;19.220;2023-03-31T02:41:12;10.90;;;8.70;;
35290;SDS011;21411;50.024;19.220;2023-03-31T02:43:39;11.00;;;9.50;;
35290;SDS011;21411;50.024;19.220;2023-03-31T02:46:06;11.40;;;8.40;;
35290;SDS011;21411;50.024;19.220;2023-03-31T02:48:34;8.80;;;7.00;;
35290;SDS011;21411;50.024;19.220;2023-03-31T03:12:24;5.70;;;4.80;;
35290;SDS011;21411;50.024;19.220;2023-03-31T03:15:04;7.30;;;5.30;;
35290;SDS011;21411;50.024;19.220;2023-03-31T03:20:10;5.40;;;4.70;;
35290;SDS011;21411;50.024;19.220;2023-03-31T03:22:38;6.70;;;5.00;;
35290;SDS011;21411;50.024;19.220;2023-03-31T03:25:06;5.20;;;4.80;;
35290;SDS011;21411;50.024;19.220;2023-03-31T03:27:35;5.50;;;5.00;;
35290;SDS011;21411;50.024;19.220;2023-03-31T03:30:03;6.20;;;5.60;;
35290;SDS011;21411;50.024;19.220;2023-03-31T03:32:31;6.00;;;5.40;;
35290;SDS011;21411;50.024;19.220;2023-03-31T03:34:59;6.00;;;5.30;;
35290;SDS011;21411;50.024;19.220;2023-03-31T03:37:27;5.30;;;4.80;;
35290;SDS011;21411;50.024;19.220;2023-03-31T03:39:55;7.00;;;5.90;;
35290;SDS011;21411;50.024;19.220;2023-03-31T03:42:22;5.90;;;5.20;;
35290;SDS011;21411;50.024;19.220;2023-03-31T03:44:49;7.00;;;5.70;;
35290;SDS011;21411;50.024;19.220;2023-03-31T03:47:16;7.30;;;6.00;;
35290;SDS011;21411;50.024;19.220;2023-03-31T03:49:42;8.10;;;7.30;;
35290;SDS011;21411;50.024;19.220;2023-03-31T03:52:09;6.70;;;5.80;;
35290;SDS011;21411;50.024;19.220;2023-03-31T03:54:35;6.40;;;5.70;;
35290;SDS011;21411;50.024;19.220;2023-03-31T03:57:02;8.30;;;5.80;;
35290;SDS011;21411;50.024;19.220;2023-03-31T03:59:28;6.70;;;5.90;;
35290;SDS011;21411;50.024;19.220;2023-03-31T04:01:55;6.30;;;5.30;;
35290;SDS011;21411;50.024;19.220;2023-03-31T04:04:22;6.60;;;5.90;;
35290;SDS011;21411;50.024;19.220;2023-03-31T04:06:49;8.80;;;8.00;;
35290;SDS011;21411;50.024;19.220;2023-03-31T04:09:15;8.30;;;7.00;;
35290;SDS011;21411;50.024;19.220;2023-03-31T04:11:43;8.30;;;7.50;;
35290;SDS011;21411;50.024;19.220;2023-03-31T04:14:09;8.10;;;6.60;;
35290;SDS011;21411;50.024;19.220;2023-03-31T04:16:36;7.10;;;6.20;;
35290;SDS011;21411;50.024;19.220;2023-03-31T04:19:03;6.80;;;5.90;;
35290;SDS011;21411;50.024;19.220;2023-03-31T04:21:30;7.10;;;5.90;;
35290;SDS011;21411;50.024;19.220;2023-03-31T04:24:00;6.80;;;6.20;;
35290;SDS011;21411;50.024;19.220;2023-03-31T04:26:30;6.90;;;6.20;;
35290;SDS011;21411;50.024;19.220;2023-03-31T04:29:11;6.90;;;6.00;;
35290;SDS011;21411;50.024;19.220;2023-03-31T04:31:41;7.50;;;6.00;;
35290;SDS011;21411;50.024;19.220;2023-03-31T04:34:12;8.90;;;7.70;;
35290;SDS011;21411;50.024;19.220;2023-03-31T04:36:41;6.70;;;6.10;;
35290;SDS011;21411;50.024;19.220;2023-03-31T04:39:12;7.90;;;6.40;;
35290;SDS011;21411;50.024;19.220;2023-03-31T04:41:40;6.30;;;5.70;;
35290;SDS011;21411;50.024;19.220;2023-03-31T04:44:07;6.40;;;5.50;;
35290;SDS011;21411;50.024;19.220;2023-03-31T04:46:33;6.60;;;5.60;;
35290;SDS011;21411;50.024;19.220;2023-03-31T04:49:00;6.70;;;6.00;;
35290;SDS011;21411;50.024;19.220;2023-03-31T04:51:28;8.70;;;5.60;;
35290;SDS011;21411;50.024;19.220;2023-03-31T04:53:54;6.60;;;5.90;;
35290;SDS011;21411;50.024;19.220;2023-03-31T04:56:21;6.30;;;5.70;;
35290;SDS011;21411;50.024;19.220;2023-03-31T04:58:48;6.80;;;5.90;;
35290;SDS011;21411;50.024;19.220;2023-03-31T05:01:14;7.10;;;6.40;;
35290;SDS011;21411;50.024;19.220;2023-03-31T05:03:44;8.70;;;6.60;;
35290;SDS011;21411;50.024;19.220;2023-03-31T05:06:13;6.60;;;5.80;;
35290;SDS011;21411;50.024;19.220;2023-03-31T05:08:40;9.20;;;6.30;;
35290;SDS011;21411;50.024;19.220;2023-03-31T05:11:07;7.00;;;6.30;;
35290;SDS011;21411;50.024;19.220;2023-03-31T05:13:34;7.40;;;6.70;;
35290;SDS011;21411;50.024;19.220;2023-03-31T05:16:05;7.80;;;7.10;;
35290;SDS011;21411;50.024;19.220;2023-03-31T05:18:33;7.90;;;6.50;;
35290;SDS011;21411;50.024;19.220;2023-03-31T05:21:13;8.20;;;6.40;;
35290;SDS011;21411;50.024;19.220;2023-03-31T05:23:41;8.00;;;7.10;;
35290;SDS011;21411;50.024;19.220;2023-03-31T05:26:08;7.60;;;6.30;;
35290;SDS011;21411;50.024;19.220;2023-03-31T05:28:36;8.90;;;6.30;;
35290;SDS011;21411;50.024;19.220;2023-03-31T05:31:04;9.60;;;8.60;;
35290;SDS011;21411;50.024;19.220;2023-03-31T05:33:32;10.40;;;8.70;;
35290;SDS011;21411;50.024;19.220;2023-03-31T05:35:59;8.70;;;6.50;;
35290;SDS011;21411;50.024;19.220;2023-03-31T05:38:26;6.60;;;5.30;;
35290;SDS011;21411;50.024;19.220;2023-03-31T05:40:56;7.00;;;5.30;;
35290;SDS011;21411;50.024;19.220;2023-03-31T05:43:23;8.30;;;4.90;;
35290;SDS011;21411;50.024;19.220;2023-03-31T05:45:50;4.40;;;4.00;;
35290;SDS011;21411;50.024;19.220;2023-03-31T05:48:17;6.50;;;4.20;;
35290;SDS011;21411;50.024;19.220;2023-03-31T05:50:43;5.50;;;4.00;;
35290;SDS011;21411;50.024;19.220;2023-03-31T05:53:10;5.90;;;4.10;;
35290;SDS011;21411;50.024;19.220;2023-03-31T05:55:37;6.20;;;4.30;;
35290;SDS011;21411;50.024;19.220;2023-03-31T05:58:04;7.20;;;4.80;;
35290;SDS011;21411;50.024;19.220;2023-03-31T06:00:32;6.80;;;4.60;;
35290;SDS011;21411;50.024;19.220;2023-03-31T06:03:01;5.90;;;4.70;;
35290;SDS011;21411;50.024;19.220;2023-03-31T06:05:28;6.40;;;4.00;;
35290;SDS011;21411;50.024;19.220;2023-03-31T06:07:56;6.90;;;4.00;;
35290;SDS011;21411;50.024;19.220;2023-03-31T06:10:23;7.20;;;4.40;;
35290;SDS011;21411;50.024;19.220;2023-03-31T06:12:49;6.70;;;4.60;;
35290;SDS011;21411;50.024;19.220;2023-03-31T06:15:16;5.40;;;3.90;;
35290;SDS011;21411;50.024;19.220;2023-03-31T06:17:43;5.80;;;3.50;;
35290;SDS011;21411;50.024;19.220;2023-03-31T06:20:10;5.00;;;3.10;;
35290;SDS011;21411;50.024;19.220;2023-03-31T06:22:36;5.20;;;3.00;;
35290;SDS011;21411;50.024;19.220;2023-03-31T06:25:03;6.70;;;3.30;;
35290;SDS011;21411;50.024;19.220;2023-03-31T06:27:31;6.00;;;3.20;;
35290;SDS011;21411;50.024;19.220;2023-03-31T06:29:58;5.60;;;2.80;;
35290;SDS011;21411;50.024;19.220;2023-03-31T06:32:24;5.00;;;3.10;;
35290;SDS011;21411;50.024;19.220;2023-03-31T06:34:52;5.20;;;3.10;;
35290;SDS011;21411;50.024;19.220;2023-03-31T06:37:18;5.80;;;3.30;;
35290;SDS011;21411;50.024;19.220;2023-03-31T06:39:45;3.80;;;3.20;;
35290;SDS011;21411;50.024;19.220;2023-03-31T06:42:12;4.90;;;3.30;;
35290;SDS011;21411;50.024;19.220;2023-03-31T06:44:39;4.50;;;2.90;;
35290;SDS011;21411;50.024;19.220;2023-03-31T06:47:05;4.10;;;3.20;;
35290;SDS011;21411;50.024;19.220;2023-03-31T06:49:32;6.20;;;3.50;;
35290;SDS011;21411;50.024;19.220;2023-03-31T06:51:59;5.40;;;3.10;;
35290;SDS011;21411;50.024;19.220;2023-03-31T06:54:26;4.10;;;2.80;;
35290;SDS011;21411;50.024;19.220;2023-03-31T06:56:53;3.10;;;2.40;;
35290;SDS011;21411;50.024;19.220;2023-03-31T06:59:19;3.60;;;2.40;;
35290;SDS011;21411;50.024;19.220;2023-03-31T07:01:46;4.90;;;2.80;;
35290;SDS011;21411;50.024;19.220;2023-03-31T07:04:13;3.80;;;2.00;;
35290;SDS011;21411;50.024;19.220;2023-03-31T07:06:40;4.10;;;2.10;;
35290;SDS011;21411;50.024;19.220;2023-03-31T07:09:07;4.30;;;2.50;;
35290;SDS011;21411;50.024;19.220;2023-03-31T07:11:34;4.40;;;2.10;;
35290;SDS011;21411;50.024;19.220;2023-03-31T07:14:00;3.50;;;2.30;;
35290;SDS011;21411;50.024;19.220;2023-03-31T07:16:27;4.50;;;2.50;;
35290;SDS011;21411;50.024;19.220;2023-03-31T07:18:53;5.50;;;2.30;;
35290;SDS011;21411;50.024;19.220;2023-03-31T07:21:24;5.70;;;2.10;;
35290;SDS011;21411;50.024;19.220;2023-03-31T07:23:51;4.50;;;2.00;;
35290;SDS011;21411;50.024;19.220;2023-03-31T07:26:18;3.40;;;2.30;;
35290;SDS011;21411;50.024;19.220;2023-03-31T07:28:44;3.40;;;2.40;;
35290;SDS011;21411;50.024;19.220;2023-03-31T07:31:11;3.50;;;1.70;;
35290;SDS011;21411;50.024;19.220;2023-03-31T07:33:39;3.90;;;1.80;;
35290;SDS011;21411;50.024;19.220;2023-03-31T07:36:09;3.70;;;1.70;;
35290;SDS011;21411;50.024;19.220;2023-03-31T07:38:36;2.30;;;1.60;;
35290;SDS011;21411;50.024;19.220;2023-03-31T07:41:02;4.00;;;1.90;;
35290;SDS011;21411;50.024;19.220;2023-03-31T07:43:29;4.00;;;1.80;;
35290;SDS011;21411;50.024;19.220;2023-03-31T07:45:56;4.30;;;1.90;;
35290;SDS011;21411;50.024;19.220;2023-03-31T07:48:22;3.70;;;2.00;;
35290;SDS011;21411;50.024;19.220;2023-03-31T07:50:49;4.30;;;1.70;;
35290;SDS011;21411;50.024;19.220;2023-03-31T07:53:16;3.80;;;1.70;;
35290;SDS011;21411;50.024;19.220;2023-03-31T07:55:43;5.00;;;1.30;;
35290;SDS011;21411;50.024;19.220;2023-03-31T07:58:10;2.90;;;1.60;;
35290;SDS011;21411;50.024;19.220;2023-03-31T08:00:37;4.30;;;1.50;;
35290;SDS011;21411;50.024;19.220;2023-03-31T08:03:03;4.50;;;1.50;;
35290;SDS011;21411;50.024;19.220;2023-03-31T08:05:31;2.60;;;1.50;;
35290;SDS011;21411;50.024;19.220;2023-03-31T08:07:58;3.50;;;2.30;;
35290;SDS011;21411;50.024;19.220;2023-03-31T08:10:25;4.30;;;1.70;;
35290;SDS011;21411;50.024;19.220;2023-03-31T08:12:53;4.80;;;1.60;;
35290;SDS011;21411;50.024;19.220;2023-03-31T08:15:20;3.30;;;1.80;;
35290;SDS011;21411;50.024;19.220;2023-03-31T08:17:47;4.80;;;1.70;;
35290;SDS011;21411;50.024;19.220;2023-03-31T08:20:13;3.30;;;1.40;;
35290;SDS011;21411;50.024;19.220;2023-03-31T08:22:40;4.50;;;1.70;;
35290;SDS011;21411;50.024;19.220;2023-03-31T08:25:08;3.90;;;1.80;;
35290;SDS011;21411;50.024;19.220;2023-03-31T08:27:36;3.50;;;1.80;;
35290;SDS011;21411;50.024;19.220;2023-03-31T08:30:05;2.60;;;1.40;;
35290;SDS011;21411;50.024;19.220;2023-03-31T08:32:34;5.40;;;2.50;;
35290;SDS011;21411;50.024;19.220;2023-03-31T08:35:01;4.90;;;2.50;;
35290;SDS011;21411;50.024;19.220;2023-03-31T08:37:28;3.90;;;2.30;;
35290;SDS011;21411;50.024;19.220;2023-03-31T08:39:54;4.90;;;2.60;;
35290;SDS011;21411;50.024;19.220;2023-03-31T08:42:38;5.20;;;2.40;;
35290;SDS011;21411;50.024;19.220;2023-03-31T08:45:22;3.50;;;1.70;;
35290;SDS011;21411;50.024;19.220;2023-03-31T08:47:54;5.20;;;2.00;;
35290;SDS011;21411;50.024;19.220;2023-03-31T08:50:26;4.10;;;2.10;;
35290;SDS011;21411;50.024;19.220;2023-03-31T08:53:05;5.60;;;1.80;;
35290;SDS011;21411;50.024;19.220;2023-03-31T09:12:32;4.30;;;1.70;;
35290;SDS011;21411;50.024;19.220;2023-03-31T09:15:08;2.70;;;1.60;;
35290;SDS011;21411;50.024;19.220;2023-03-31T09:17:41;7.70;;;3.80;;
35290;SDS011;21411;50.024;19.220;2023-03-31T09:20:21;4.40;;;2.70;;
35290;SDS011;21411;50.024;19.220;2023-03-31T09:22:50;3.10;;;2.00;;
35290;SDS011;21411;50.024;19.220;2023-03-31T09:25:24;4.50;;;1.70;;
35290;SDS011;21411;50.024;19.220;2023-03-31T09:27:54;4.40;;;2.30;;
35290;SDS011;21411;50.024;19.220;2023-03-31T09:30:27;5.00;;;2.30;;
35290;SDS011;21411;50.024;19.220;2023-03-31T09:33:15;5.80;;;2.40;;
35290;SDS011;21411;50.024;19.220;2023-03-31T09:35:57;5.80;;;3.10;;
35290;SDS011;21411;50.024;19.220;2023-03-31T09:38:25;2.90;;;2.00;;
35290;SDS011;21411;50.024;19.220;2023-03-31T09:40:56;3.40;;;2.30;;
35290;SDS011;21411;50.024;19.220;2023-03-31T09:43:26;5.20;;;2.70;;
35290;SDS011;21411;50.024;19.220;2023-03-31T09:45:54;3.60;;;2.30;;
35290;SDS011;21411;50.024;19.220;2023-03-31T09:48:22;4.80;;;2.30;;
35290;SDS011;21411;50.024;19.220;2023-03-31T09:50:56;6.70;;;3.60;;
35290;SDS011;21411;50.024;19.220;2023-03-31T09:56:09;5.10;;;2.40;;
35290;SDS011;21411;50.024;19.220;2023-03-31T09:58:40;6.20;;;2.70;;
35290;SDS011;21411;50.024;19.220;2023-03-31T10:01:09;6.40;;;3.80;;
35290;SDS011;21411;50.024;19.220;2023-03-31T10:03:48;5.60;;;3.00;;
35290;SDS011;21411;50.024;19.220;2023-03-31T10:06:17;4.70;;;2.50;;
35290;SDS011;21411;50.024;19.220;2023-03-31T10:11:14;4.50;;;2.60;;
35290;SDS011;21411;50.024;19.220;2023-03-31T10:13:45;3.90;;;2.60;;
35290;SDS011;21411;50.024;19.220;2023-03-31T10:16:22;5.40;;;2.20;;
35290;SDS011;21411;50.024;19.220;2023-03-31T10:18:53;5.70;;;2.00;;
35290;SDS011;21411;50.024;19.220;2023-03-31T10:21:23;5.20;;;2.20;;
35290;SDS011;21411;50.024;19.220;2023-03-31T10:23:52;3.40;;;2.20;;
35290;SDS011;21411;50.024;19.220;2023-03-31T10:26:21;5.30;;;2.40;;
35290;SDS011;21411;50.024;19.220;2023-03-31T10:28:52;3.40;;;2.30;;
35290;SDS011;21411;50.024;19.220;2023-03-31T10:31:33;4.70;;;2.40;;
35290;SDS011;21411;50.024;19.220;2023-03-31T10:34:08;4.40;;;2.00;;
35290;SDS011;21411;50.024;19.220;2023-03-31T10:36:45;2.90;;;1.80;;
35290;SDS011;21411;50.024;19.220;2023-03-31T10:39:15;4.20;;;2.50;;
35290;SDS011;21411;50.024;19.220;2023-03-31T10:41:42;4.10;;;2.10;;
35290;SDS011;21411;50.024;19.220;2023-03-31T10:44:33;2.70;;;1.60;;
35290;SDS011;21411;50.024;19.220;2023-03-31T10:47:20;3.40;;;2.30;;
35290;SDS011;21411;50.024;19.220;2023-03-31T10:49:48;4.30;;;2.30;;
35290;SDS011;21411;50.024;19.220;2023-03-31T10:54:46;5.60;;;2.80;;
35290;SDS011;21411;50.024;19.220;2023-03-31T10:57:14;5.10;;;2.50;;
35290;SDS011;21411;50.024;19.220;2023-03-31T10:59:50;4.70;;;2.70;;
35290;SDS011;21411;50.024;19.220;2023-03-31T11:02:41;7.00;;;3.20;;
35290;SDS011;21411;50.024;19.220;2023-03-31T11:05:25;5.50;;;3.10;;
35290;SDS011;21411;50.024;19.220;2023-03-31T11:08:09;4.00;;;2.90;;
35290;SDS011;21411;50.024;19.220;2023-03-31T11:18:58;5.40;;;2.20;;
35290;SDS011;21411;50.024;19.220;2023-03-31T11:24:28;5.30;;;2.10;;
35290;SDS011;21411;50.024;19.220;2023-03-31T11:27:28;3.40;;;2.20;;
35290;SDS011;21411;50.024;19.220;2023-03-31T11:38:15;5.30;;;2.80;;
35290;SDS011;21411;50.024;19.220;2023-03-31T11:41:09;4.20;;;2.50;;
35290;SDS011;21411;50.024;19.220;2023-03-31T11:43:46;2.80;;;2.10;;
35290;SDS011;21411;50.024;19.220;2023-03-31T11:48:53;3.50;;;1.90;;
35290;SDS011;21411;50.024;19.220;2023-03-31T11:51:29;4.70;;;2.50;;
35290;SDS011;21411;50.024;19.220;2023-03-31T11:54:07;3.70;;;1.90;;
35290;SDS011;21411;50.024;19.220;2023-03-31T11:56:42;3.70;;;2.00;;
35290;SDS011;21411;50.024;19.220;2023-03-31T11:59:13;3.60;;;1.80;;
35290;SDS011;21411;50.024;19.220;2023-03-31T12:01:53;4.90;;;2.50;;
35290;SDS011;21411;50.024;19.220;2023-03-31T12:07:02;3.40;;;2.00;;
35290;SDS011;21411;50.024;19.220;2023-03-31T12:09:50;5.90;;;2.80;;
35290;SDS011;21411;50.024;19.220;2023-03-31T12:12:32;4.00;;;2.00;;
35290;SDS011;21411;50.024;19.220;2023-03-31T12:17:48;3.50;;;1.90;;
35290;SDS011;21411;50.024;19.220;2023-03-31T12:20:25;5.40;;;2.40;;
35290;SDS011;21411;50.024;19.220;2023-03-31T12:23:14;4.90;;;2.20;;
35290;SDS011;21411;50.024;19.220;2023-03-31T12:25:51;5.30;;;2.30;;
35290;SDS011;21411;50.024;19.220;2023-03-31T12:28:28;2.40;;;1.60;;
35290;SDS011;21411;50.024;19.220;2023-03-31T12:30:59;4.80;;;1.80;;
35290;SDS011;21411;50.024;19.220;2023-03-31T12:33:41;2.50;;;1.40;;
35290;SDS011;21411;50.024;19.220;2023-03-31T12:36:30;4.50;;;1.90;;
35290;SDS011;21411;50.024;19.220;2023-03-31T12:52:21;4.90;;;2.70;;
35290;SDS011;21411;50.024;19.220;2023-03-31T12:57:34;6.10;;;2.50;;
35290;SDS011;21411;50.024;19.220;2023-03-31T13:02:36;3.80;;;1.60;;
35290;SDS011;21411;50.024;19.220;2023-03-31T13:08:05;5.50;;;1.30;;
35290;SDS011;21411;50.024;19.220;2023-03-31T13:13:23;4.30;;;1.20;;
35290;SDS011;21411;50.024;19.220;2023-03-31T13:15:52;2.60;;;1.30;;
35290;SDS011;21411;50.024;19.220;2023-03-31T13:18:21;3.00;;;1.10;;
35290;SDS011;21411;50.024;19.220;2023-03-31T13:20:58;2.10;;;0.70;;
35290;SDS011;21411;50.024;19.220;2023-03-31T13:23:28;2.10;;;0.90;;
35290;SDS011;21411;50.024;19.220;2023-03-31T13:26:00;2.10;;;1.10;;
35290;SDS011;21411;50.024;19.220;2023-03-31T13:28:31;3.20;;;1.20;;
35290;SDS011;21411;50.024;19.220;2023-03-31T13:31:07;3.10;;;1.40;;
35290;SDS011;21411;50.024;19.220;2023-03-31T13:39:04;3.10;;;1.30;;
35290;SDS011;21411;50.024;19.220;2023-03-31T13:45:09;2.50;;;1.20;;
35290;SDS011;21411;50.024;19.220;2023-03-31T13:50:45;3.60;;;1.40;;
35290;SDS011;21411;50.024;19.220;2023-03-31T13:59:30;2.60;;;1.20;;
35290;SDS011;21411;50.024;19.220;2023-03-31T14:05:05;5.90;;;1.70;;
35290;SDS011;21411;50.024;19.220;2023-03-31T14:13:15;4.80;;;1.90;;
35290;SDS011;21411;50.024;19.220;2023-03-31T14:18:24;3.70;;;1.70;;
35290;SDS011;21411;50.024;19.220;2023-03-31T14:23:48;4.00;;;2.20;;
35290;SDS011;21411;50.024;19.220;2023-03-31T14:29:19;4.80;;;2.40;;
35290;SDS011;21411;50.024;19.220;2023-03-31T14:34:43;2.60;;;1.70;;
35290;SDS011;21411;50.024;19.220;2023-03-31T14:37:18;6.10;;;2.30;;
35290;SDS011;21411;50.024;19.220;2023-03-31T14:39:52;4.50;;;1.70;;
35290;SDS011;21411;50.024;19.220;2023-03-31T14:42:25;4.20;;;2.20;;
35290;SDS011;21411;50.024;19.220;2023-03-31T14:45:01;7.70;;;2.20;;
35290;SDS011;21411;50.024;19.220;2023-03-31T14:47:29;4.80;;;2.40;;
35290;SDS011;21411;50.024;19.220;2023-03-31T14:50:12;6.40;;;2.90;;
35290;SDS011;21411;50.024;19.220;2023-03-31T14:52:49;6.10;;;2.80;;
35290;SDS011;21411;50.024;19.220;2023-03-31T14:55:25;7.80;;;4.80;;
35290;SDS011;21411;50.024;19.220;2023-03-31T14:57:54;7.20;;;3.80;;
35290;SDS011;21411;50.024;19.220;2023-03-31T15:00:25;7.00;;;4.00;;
35290;SDS011;21411;50.024;19.220;2023-03-31T15:02:58;7.40;;;4.10;;
35290;SDS011;21411;50.024;19.220;2023-03-31T15:05:28;6.60;;;3.20;;
35290;SDS011;21411;50.024;19.220;2023-03-31T15:07:58;5.50;;;2.40;;
35290;SDS011;21411;50.024;19.220;2023-03-31T15:10:31;5.70;;;2.10;;
35290;SDS011;21411;50.024;19.220;2023-03-31T15:13:06;4.50;;;2.50;;
35290;SDS011;21411;50.024;19.220;2023-03-31T15:15:35;5.90;;;2.50;;
35290;SDS011;21411;50.024;19.220;2023-03-31T15:18:03;7.00;;;3.20;;
35290;SDS011;21411;50.024;19.220;2023-03-31T15:20:30;4.00;;;2.60;;
35290;SDS011;21411;50.024;19.220;2023-03-31T15:23:17;5.30;;;2.60;;
35290;SDS011;21411;50.024;19.220;2023-03-31T15:25:54;5.40;;;2.80;;
35290;SDS011;21411;50.024;19.220;2023-03-31T15:28:22;5.90;;;3.90;;
35290;SDS011;21411;50.024;19.220;2023-03-31T15:30:49;5.80;;;3.30;;
35290;SDS011;21411;50.024;19.220;2023-03-31T15:36:13;6.50;;;3.90;;
35290;SDS011;21411;50.024;19.220;2023-03-31T15:38:40;6.90;;;4.70;;
35290;SDS011;21411;50.024;19.220;2023-03-31T15:41:16;8.90;;;4.00;;
35290;SDS011;21411;50.024;19.220;2023-03-31T15:43:44;7.70;;;4.70;;
35290;SDS011;21411;50.024;19.220;2023-03-31T15:46:23;12.00;;;6.90;;
35290;SDS011;21411;50.024;19.220;2023-03-31T15:49:10;13.50;;;8.00;;
35290;SDS011;21411;50.024;19.220;2023-03-31T15:51:45;12.70;;;7.40;;
35290;SDS011;21411;50.024;19.220;2023-03-31T15:57:02;10.40;;;5.70;;
35290;SDS011;21411;50.024;19.220;2023-03-31T15:59:50;12.30;;;5.90;;
35290;SDS011;21411;50.024;19.220;2023-03-31T16:02:22;10.50;;;5.90;;
35290;SDS011;21411;50.024;19.220;2023-03-31T16:04:53;7.10;;;5.50;;
35290;SDS011;21411;50.024;19.220;2023-03-31T16:07:22;8.10;;;5.20;;
35290;SDS011;21411;50.024;19.220;2023-03-31T16:09:59;8.10;;;4.90;;
35290;SDS011;21411;50.024;19.220;2023-03-31T16:12:33;5.90;;;4.50;;
35290;SDS011;21411;50.024;19.220;2023-03-31T16:15:09;6.80;;;4.20;;
35290;SDS011;21411;50.024;19.220;2023-03-31T16:17:40;8.10;;;4.70;;
35290;SDS011;21411;50.024;19.220;2023-03-31T16:23:15;9.40;;;5.40;;
35290;SDS011;21411;50.024;19.220;2023-03-31T16:25:46;6.80;;;4.80;;
35290;SDS011;21411;50.024;19.220;2023-03-31T16:28:17;8.30;;;5.10;;
35290;SDS011;21411;50.024;19.220;2023-03-31T16:30:48;8.80;;;5.40;;
35290;SDS011;21411;50.024;19.220;2023-03-31T16:33:18;10.70;;;5.30;;
35290;SDS011;21411;50.024;19.220;2023-03-31T16:35:50;7.70;;;5.10;;
35290;SDS011;21411;50.024;19.220;2023-03-31T16:38:20;9.40;;;5.50;;
35290;SDS011;21411;50.024;19.220;2023-03-31T16:40:48;9.30;;;5.60;;
35290;SDS011;21411;50.024;19.220;2023-03-31T16:43:22;10.60;;;6.10;;
35290;SDS011;21411;50.024;19.220;2023-03-31T16:45:50;12.10;;;6.40;;
35290;SDS011;21411;50.024;19.220;2023-03-31T16:48:20;8.40;;;6.30;;
35290;SDS011;21411;50.024;19.220;2023-03-31T16:50:49;10.00;;;6.60;;
35290;SDS011;21411;50.024;19.220;2023-03-31T16:55:49;9.30;;;6.30;;
35290;SDS011;21411;50.024;19.220;2023-03-31T16:58:16;12.10;;;6.50;;
35290;SDS011;21411;50.024;19.220;2023-03-31T17:00:43;9.50;;;6.20;;
35290;SDS011;21411;50.024;19.220;2023-03-31T17:03:11;18.00;;;9.00;;
35290;SDS011;21411;50.024;19.220;2023-03-31T17:05:40;33.90;;;21.20;;
35290;SDS011;21411;50.024;19.220;2023-03-31T17:08:09;49.40;;;31.40;;
35290;SDS011;21411;50.024;19.220;2023-03-31T17:10:38;25.30;;;17.90;;
35290;SDS011;21411;50.024;19.220;2023-03-31T17:13:07;16.70;;;9.80;;
35290;SDS011;21411;50.024;19.220;2023-03-31T17:15:34;12.40;;;8.40;;
35290;SDS011;21411;50.024;19.220;2023-03-31T17:18:01;13.90;;;8.50;;
35290;SDS011;21411;50.024;19.220;2023-03-31T17:20:29;11.20;;;8.30;;
35290;SDS011;21411;50.024;19.220;2023-03-31T17:22:56;11.60;;;7.90;;
35290;SDS011;21411;50.024;19.220;2023-03-31T17:25:23;13.90;;;8.10;;
35290;SDS011;21411;50.024;19.220;2023-03-31T17:27:50;14.30;;;8.20;;
35290;SDS011;21411;50.024;19.220;2023-03-31T17:30:17;11.50;;;8.00;;
35290;SDS011;21411;50.024;19.220;2023-03-31T17:32:44;13.80;;;7.90;;
35290;SDS011;21411;50.024;19.220;2023-03-31T17:35:10;11.20;;;8.10;;
35290;SDS011;21411;50.024;19.220;2023-03-31T17:37:38;15.00;;;8.10;;
35290;SDS011;21411;50.024;19.220;2023-03-31T17:40:05;12.60;;;8.30;;
35290;SDS011;21411;50.024;19.220;2023-03-31T17:42:32;15.30;;;8.70;;
35290;SDS011;21411;50.024;19.220;2023-03-31T17:44:59;12.10;;;8.60;;
35290;SDS011;21411;50.024;19.220;2023-03-31T17:47:26;13.70;;;9.00;;
35290;SDS011;21411;50.024;19.220;2023-03-31T17:49:56;14.90;;;8.20;;
35290;SDS011;21411;50.024;19.220;2023-03-31T17:52:22;17.10;;;9.90;;
35290;SDS011;21411;50.024;19.220;2023-03-31T17:54:50;14.10;;;9.40;;